Time;durP1;ratioP1;P1;durP2;ratioP2;P2;SDS_P1;SDS_P2;PMS_P1;PMS_P2;Temp;Humidity;BMP_temperature;BMP_pressure;BME280_temperature;BME280_humidity;BME280_pressure;Samples;Min_cycle;Max_cycle;Signal;HPM_P1;HPM_P2
2023/04/22 00:01:51;;;;;;;8.00;1.05;;;;;;;;;;4987576;28;20047;-74
2023/04/22 00:04:22;;;;;;;5.82;1.27;;;;;;;;;;4987937;28;20054;-76
2023/04/22 00:06:55;;;;;;;5.53;0.90;;;;;;;;;;4988427;28;20541;-77
2023/04/22 00:09:27;;;;;;;6.40;1.30;;;;;;;;;;4987549;28;20046;-74
2023/04/22 00:11:57;;;;;;;2.88;0.88;;;;;;;;;;4987313;28;20050;-77
2023/04/22 00:14:35;;;;;;;5.97;1.13;;;;;;;;;;4971011;28;20532;-75
2023/04/22 00:17:08;;;;;;;2.53;0.70;;;;;;;;;;4986943;28;20058;-72
2023/04/22 00:19:42;;;;;;;7.30;1.40;;;;;;;;;;4986438;28;20545;-76
2023/04/22 00:22:13;;;;;;;3.17;0.90;;;;;;;;;;4987681;28;20452;-76
2023/04/22 00:24:44;;;;;;;2.47;0.80;;;;;;;;;;4977215;28;20096;-74
2023/04/22 00:27:15;;;;;;;8.23;0.90;;;;;;;;;;5005835;28;20536;-74
2023/04/22 00:29:47;;;;;;;3.38;0.85;;;;;;;;;;5005740;28;20060;-74
2023/04/22 00:32:18;;;;;;;8.07;0.95;;;;;;;;;;5007312;28;20417;-75
2023/04/22 00:34:48;;;;;;;8.10;1.27;;;;;;;;;;5007319;28;20049;-74
2023/04/22 00:37:20;;;;;;;8.40;1.45;;;;;;;;;;5007021;28;20401;-74
2023/04/22 00:39:52;;;;;;;6.30;0.95;;;;;;;;;;5007152;28;20079;-72
2023/04/22 00:42:22;;;;;;;4.65;1.00;;;;;;;;;;5004959;28;20058;-78
2023/04/22 00:44:53;;;;;;;4.55;1.10;;;;;;;;;;5006740;28;20061;-73
2023/04/22 00:47:26;;;;;;;2.95;0.93;;;;;;;;;;5006962;28;20042;-75
2023/04/22 00:50:01;;;;;;;5.82;1.02;;;;;;;;;;5004111;28;20054;-77
2023/04/22 00:52:32;;;;;;;3.75;0.90;;;;;;;;;;5006647;28;20053;-74
2023/04/22 00:55:02;;;;;;;1.88;1.10;;;;;;;;;;5006836;28;20046;-75
2023/04/22 00:57:34;;;;;;;6.65;1.08;;;;;;;;;;5006839;28;20053;-75
2023/04/22 01:00:08;;;;;;;5.43;1.13;;;;;;;;;;5006441;28;20050;-74
2023/04/22 01:02:39;;;;;;;3.15;0.80;;;;;;;;;;5005778;28;20336;-74
2023/04/22 01:05:11;;;;;;;4.95;1.17;;;;;;;;;;5006280;28;20046;-74
2023/04/22 01:07:44;;;;;;;2.92;0.63;;;;;;;;;;5006561;28;20045;-73
2023/04/22 01:10:15;;;;;;;8.73;1.30;;;;;;;;;;5005384;28;20052;-76
2023/04/22 01:12:46;;;;;;;3.72;0.93;;;;;;;;;;5006134;28;20050;-76
2023/04/22 01:15:16;;;;;;;7.22;1.33;;;;;;;;;;5004862;28;20551;-74
2023/04/22 01:17:47;;;;;;;2.40;0.70;;;;;;;;;;5006432;28;20542;-74
2023/04/22 01:20:18;;;;;;;7.82;1.20;;;;;;;;;;5006367;28;20065;-74
2023/04/22 01:22:52;;;;;;;3.78;1.10;;;;;;;;;;5003843;28;20058;-77
2023/04/22 01:25:27;;;;;;;;;;;;;;;;;;5003494;28;20054;-70
2023/04/22 01:27:59;;;;;;;2.47;1.05;;;;;;;;;;5004611;28;19925;-73
2023/04/22 01:30:30;;;;;;;2.75;0.80;;;;;;;;;;5006401;28;20054;-72
2023/04/22 01:33:01;;;;;;;4.10;1.02;;;;;;;;;;5004366;28;20535;-77
2023/04/22 01:35:35;;;;;;;8.75;0.88;;;;;;;;;;5005936;28;20060;-73
2023/04/22 01:38:09;;;;;;;2.58;0.82;;;;;;;;;;5004004;28;20068;-73
2023/04/22 01:40:43;;;;;;;9.85;1.02;;;;;;;;;;5003973;28;20054;-75
2023/04/22 01:43:14;;;;;;;4.57;1.08;;;;;;;;;;5005572;28;20548;-76
2023/04/22 01:45:47;;;;;;;2.90;1.00;;;;;;;;;;5004141;28;20057;-74
2023/04/22 01:48:17;;;;;;;2.15;0.75;;;;;;;;;;5005886;28;20583;-74
2023/04/22 01:50:48;;;;;;;4.20;1.10;;;;;;;;;;5005863;28;20386;-72
2023/04/22 01:53:19;;;;;;;3.97;0.80;;;;;;;;;;5005449;28;20504;-74
2023/04/22 01:55:52;;;;;;;4.78;1.23;;;;;;;;;;5003203;28;20057;-74
2023/04/22 01:58:24;;;;;;;4.35;0.98;;;;;;;;;;5003630;28;20053;-78
2023/04/22 02:00:54;;;;;;;4.03;1.02;;;;;;;;;;5003592;28;20042;-73
2023/04/22 02:03:25;;;;;;;3.65;1.02;;;;;;;;;;5004276;28;20054;-75
2023/04/22 02:05:56;;;;;;;3.85;1.38;;;;;;;;;;5003478;28;20060;-72
2023/04/22 02:08:26;;;;;;;3.72;0.90;;;;;;;;;;5003073;28;20048;-76
2023/04/22 02:10:59;;;;;;;8.13;1.38;;;;;;;;;;5005247;28;20073;-73
2023/04/22 02:13:37;;;;;;;3.75;0.98;;;;;;;;;;5005568;28;20046;-77
2023/04/22 02:16:08;;;;;;;5.68;1.45;;;;;;;;;;5003854;28;20054;-77
2023/04/22 02:18:39;;;;;;;3.05;1.20;;;;;;;;;;5005422;28;20057;-75
2023/04/22 02:21:12;;;;;;;2.60;1.20;;;;;;;;;;5005538;28;20401;-78
2023/04/22 02:23:42;;;;;;;2.90;0.90;;;;;;;;;;5003490;28;20069;-72
2023/04/22 02:26:11;;;;;;;3.35;1.13;;;;;;;;;;4988255;28;20054;-72
2023/04/22 02:28:42;;;;;;;3.63;0.95;;;;;;;;;;4986039;28;20041;-75
2023/04/22 02:31:12;;;;;;;4.72;1.27;;;;;;;;;;4985215;28;20058;-73
2023/04/22 02:33:43;;;;;;;8.30;1.45;;;;;;;;;;4968463;28;20069;-76
2023/04/22 02:36:13;;;;;;;7.00;1.30;;;;;;;;;;4968228;28;20069;-76
2023/04/22 02:38:43;;;;;;;2.65;1.05;;;;;;;;;;4968361;28;20054;-76
2023/04/22 02:41:16;;;;;;;4.53;1.25;;;;;;;;;;4985795;28;20520;-78
2023/04/22 02:43:48;;;;;;;7.20;1.42;;;;;;;;;;4967712;28;20069;-72
2023/04/22 02:46:18;;;;;;;1.90;1.10;;;;;;;;;;4967869;28;20069;-72
2023/04/22 02:48:49;;;;;;;5.88;1.73;;;;;;;;;;4968531;28;20050;-75
2023/04/22 02:51:20;;;;;;;2.65;1.15;;;;;;;;;;4967941;28;20093;-69
2023/04/22 02:53:52;;;;;;;2.95;1.20;;;;;;;;;;4968374;28;20055;-72
2023/04/22 02:56:23;;;;;;;2.25;1.50;;;;;;;;;;4967449;28;20070;-73
2023/04/22 02:58:52;;;;;;;3.83;1.75;;;;;;;;;;4968121;28;20065;-74
2023/04/22 03:01:23;;;;;;;4.82;1.42;;;;;;;;;;4985285;28;20055;-74
2023/04/22 03:03:58;;;;;;;4.60;1.60;;;;;;;;;;4967574;28;20536;-76
2023/04/22 03:06:29;;;;;;;3.78;1.52;;;;;;;;;;4968148;28;20054;-75
2023/04/22 03:09:00;;;;;;;3.33;1.48;;;;;;;;;;4971497;28;20529;-77
2023/04/22 03:11:30;;;;;;;3.15;1.85;;;;;;;;;;4989561;28;20524;-75
2023/04/22 03:14:00;;;;;;;4.25;1.52;;;;;;;;;;4971239;28;20058;-75
2023/04/22 03:16:31;;;;;;;3.10;1.45;;;;;;;;;;4971118;28;20061;-73
2023/04/22 03:19:05;;;;;;;3.85;1.80;;;;;;;;;;4970922;28;20439;-76
2023/04/22 03:21:35;;;;;;;3.63;1.70;;;;;;;;;;4988828;28;20034;-75
2023/04/22 03:24:07;;;;;;;6.15;2.00;;;;;;;;;;4970861;28;20062;-74
2023/04/22 03:26:42;;;;;;;3.10;1.85;;;;;;;;;;4972155;28;20054;-75
2023/04/22 03:29:14;;;;;;;4.70;2.08;;;;;;;;;;4971577;28;20058;-76
2023/04/22 03:31:44;;;;;;;5.45;1.92;;;;;;;;;;4971003;28;20516;-71
2023/04/22 03:34:16;;;;;;;3.90;2.05;;;;;;;;;;4971048;28;20418;-73
2023/04/22 03:36:46;;;;;;;4.78;1.88;;;;;;;;;;4970664;28;20590;-73
2023/04/22 03:39:18;;;;;;;4.10;2.08;;;;;;;;;;4971011;28;20526;-74
2023/04/22 03:41:49;;;;;;;2.88;1.60;;;;;;;;;;4971195;28;20558;-73
2023/04/22 03:44:21;;;;;;;4.57;2.40;;;;;;;;;;4988869;28;20051;-74
2023/04/22 03:46:51;;;;;;;6.22;2.45;;;;;;;;;;4970750;28;20074;-72
2023/04/22 03:49:28;;;;;;;3.63;2.20;;;;;;;;;;4970971;28;20513;-75
2023/04/22 03:51:58;;;;;;;3.78;2.38;;;;;;;;;;4970895;28;20046;-73
2023/04/22 03:54:30;;;;;;;4.22;2.30;;;;;;;;;;4970881;28;20058;-74
2023/04/22 03:57:01;;;;;;;6.03;2.45;;;;;;;;;;4970650;28;20062;-73
2023/04/22 03:59:33;;;;;;;4.15;3.00;;;;;;;;;;4970152;28;20073;-73
2023/04/22 04:02:02;;;;;;;4.95;2.60;;;;;;;;;;4970265;28;20047;-75
2023/04/22 04:04:33;;;;;;;3.92;2.33;;;;;;;;;;4970566;28;20065;-73
2023/04/22 04:07:07;;;;;;;4.90;2.78;;;;;;;;;;4969774;28;20050;-75
2023/04/22 04:09:37;;;;;;;3.35;2.28;;;;;;;;;;4970071;28;20516;-75
2023/04/22 04:12:08;;;;;;;5.93;3.03;;;;;;;;;;4969582;28;20050;-75
2023/04/22 04:14:43;;;;;;;3.10;2.47;;;;;;;;;;4969957;28;20046;-77
2023/04/22 04:17:17;;;;;;;5.55;3.05;;;;;;;;;;4970560;28;20050;-71
2023/04/22 04:19:50;;;;;;;6.45;3.47;;;;;;;;;;4969612;28;20077;-76
2023/04/22 04:22:21;;;;;;;3.80;2.50;;;;;;;;;;4969386;28;20054;-74
2023/04/22 04:24:57;;;;;;;3.42;2.67;;;;;;;;;;4979933;28;20065;-74
2023/04/22 04:27:32;;;;;;;5.00;2.78;;;;;;;;;;5005952;28;20058;-75
2023/04/22 04:30:03;;;;;;;7.82;3.10;;;;;;;;;;5005682;28;20046;-76
2023/04/22 04:32:47;;;;;;;7.15;3.33;;;;;;;;;;5005315;28;20969;-76
2023/04/22 04:35:19;;;;;;;4.25;3.13;;;;;;;;;;5008102;28;20050;-74
2023/04/22 04:37:54;;;;;;;6.35;2.90;;;;;;;;;;5005302;28;20421;-73
2023/04/22 04:40:28;;;;;;;5.43;3.00;;;;;;;;;;5006946;28;20050;-77
2023/04/22 04:43:11;;;;;;;4.82;2.85;;;;;;;;;;5004814;28;20058;-73
2023/04/22 04:45:53;;;;;;;3.63;2.70;;;;;;;;;;5005019;28;20053;-75
2023/04/22 04:48:34;;;;;;;5.50;2.80;;;;;;;;;;5005164;28;20068;-73
2023/04/22 04:51:08;;;;;;;4.43;2.63;;;;;;;;;;5005765;28;20061;-74
2023/04/22 04:53:58;;;;;;;5.05;3.25;;;;;;;;;;5006139;28;20630;-72
2023/04/22 04:56:35;;;;;;;5.00;3.33;;;;;;;;;;5005250;28;20433;-76
2023/04/22 04:59:06;;;;;;;5.30;2.60;;;;;;;;;;5004430;28;20049;-76
2023/04/22 05:01:38;;;;;;;4.20;2.70;;;;;;;;;;5005321;28;20057;-71
2023/04/22 05:04:12;;;;;;;3.78;2.28;;;;;;;;;;5004997;28;20496;-76
2023/04/22 05:06:44;;;;;;;5.47;2.88;;;;;;;;;;5005156;28;20062;-76
2023/04/22 05:09:16;;;;;;;3.88;2.63;;;;;;;;;;5005058;28;20080;-75
2023/04/22 05:11:50;;;;;;;3.42;2.95;;;;;;;;;;5004890;28;20053;-74
2023/04/22 05:14:21;;;;;;;5.50;2.40;;;;;;;;;;5004577;28;20866;-73
2023/04/22 05:16:51;;;;;;;5.18;3.25;;;;;;;;;;5003879;28;20050;-76
2023/04/22 05:19:22;;;;;;;5.40;2.70;;;;;;;;;;5004110;28;20531;-75
2023/04/22 05:21:55;;;;;;;3.55;3.00;;;;;;;;;;5004882;28;20428;-76
2023/04/22 05:24:25;;;;;;;6.85;2.92;;;;;;;;;;5002301;28;20406;-72
2023/04/22 05:26:58;;;;;;;3.55;2.83;;;;;;;;;;4968841;28;20050;-77
2023/04/22 05:29:30;;;;;;;3.67;2.85;;;;;;;;;;4968545;28;20046;-73
2023/04/22 05:32:03;;;;;;;5.03;3.30;;;;;;;;;;4967800;28;20065;-74
2023/04/22 05:34:35;;;;;;;5.13;3.03;;;;;;;;;;4969179;28;20059;-74
2023/04/22 05:37:07;;;;;;;4.70;3.28;;;;;;;;;;4969584;28;20057;-74
2023/04/22 05:39:40;;;;;;;5.63;3.60;;;;;;;;;;4968805;28;20426;-73
2023/04/22 05:42:11;;;;;;;5.10;3.00;;;;;;;;;;4968679;28;20058;-75
2023/04/22 05:44:45;;;;;;;4.28;3.20;;;;;;;;;;4969124;28;20580;-72
2023/04/22 05:47:16;;;;;;;5.80;2.63;;;;;;;;;;4968196;28;20069;-77
2023/04/22 05:49:47;;;;;;;5.13;3.10;;;;;;;;;;4968303;28;20061;-71
2023/04/22 05:52:26;;;;;;;4.18;2.60;;;;;;;;;;4968740;28;20058;-74
2023/04/22 05:55:07;;;;;;;3.63;2.88;;;;;;;;;;4969128;28;20054;-75
2023/04/22 05:57:38;;;;;;;5.35;3.22;;;;;;;;;;4969405;28;20054;-75
2023/04/22 06:00:19;;;;;;;4.85;2.90;;;;;;;;;;4968792;28;20053;-74
2023/04/22 06:03:04;;;;;;;4.20;2.58;;;;;;;;;;4968385;28;20065;-74
2023/04/22 06:05:36;;;;;;;5.05;2.60;;;;;;;;;;4968388;28;20413;-74
2023/04/22 06:08:07;;;;;;;4.18;2.72;;;;;;;;;;4952965;28;20513;-73
2023/04/22 06:10:36;;;;;;;4.70;2.70;;;;;;;;;;4985807;28;20046;-74
2023/04/22 06:13:09;;;;;;;3.33;2.50;;;;;;;;;;4968611;28;20058;-74
2023/04/22 06:15:40;;;;;;;5.10;2.70;;;;;;;;;;4968990;28;20046;-77
2023/04/22 06:18:10;;;;;;;4.53;2.88;;;;;;;;;;4968559;28;20425;-73
2023/04/22 06:20:41;;;;;;;4.60;2.55;;;;;;;;;;4968362;28;20046;-76
2023/04/22 06:23:12;;;;;;;4.72;2.30;;;;;;;;;;4968041;28;20054;-77
2023/04/22 06:25:43;;;;;;;4.18;3.00;;;;;;;;;;4985759;28;20069;-78
2023/04/22 06:28:14;;;;;;;4.43;2.28;;;;;;;;;;4967892;28;20047;-77
2023/04/22 06:30:45;;;;;;;5.22;2.83;;;;;;;;;;4968316;28;20069;-75
2023/04/22 06:33:16;;;;;;;3.10;2.35;;;;;;;;;;4968804;28;20054;-73
2023/04/22 06:35:47;;;;;;;5.63;3.20;;;;;;;;;;4968202;28;20516;-71
2023/04/22 06:38:17;;;;;;;3.55;2.47;;;;;;;;;;4968268;28;20065;-75
2023/04/22 06:41:07;;;;;;;5.38;2.80;;;;;;;;;;4985770;28;20539;-75
2023/04/22 06:43:43;;;;;;;4.53;3.00;;;;;;;;;;4972074;28;20054;-74
2023/04/22 06:46:38;;;;;;;3.30;2.22;;;;;;;;;;4989700;28;20054;-76
2023/04/22 06:49:38;;;;;;;4.07;2.95;;;;;;;;;;4971809;28;20058;-72
2023/04/22 06:52:29;;;;;;;4.50;2.38;;;;;;;;;;4988784;28;20356;-75
2023/04/22 06:55:02;;;;;;;3.85;2.70;;;;;;;;;;4988665;28;20058;-76
2023/04/22 06:57:34;;;;;;;3.47;2.47;;;;;;;;;;4972054;28;20535;-74
2023/04/22 07:00:08;;;;;;;3.75;2.60;;;;;;;;;;4971828;28;20057;-74
2023/04/22 07:02:40;;;;;;;3.78;2.83;;;;;;;;;;4972436;28;20046;-75
2023/04/22 07:05:11;;;;;;;3.70;2.78;;;;;;;;;;4971870;28;20058;-73
2023/04/22 07:07:42;;;;;;;4.55;3.00;;;;;;;;;;4971910;28;20058;-76
2023/04/22 07:10:17;;;;;;;5.70;3.10;;;;;;;;;;4971786;28;20057;-75
2023/04/22 07:13:11;;;;;;;5.97;2.60;;;;;;;;;;4988175;28;20058;-77
2023/04/22 07:15:41;;;;;;;5.70;3.08;;;;;;;;;;4989075;28;20046;-73
2023/04/22 07:18:11;;;;;;;6.78;3.15;;;;;;;;;;4989414;28;20413;-74
2023/04/22 07:20:43;;;;;;;6.25;3.50;;;;;;;;;;4988228;28;20058;-71
2023/04/22 07:23:13;;;;;;;5.22;2.90;;;;;;;;;;4988679;28;20441;-73
2023/04/22 07:25:43;;;;;;;5.70;2.83;;;;;;;;;;4988902;28;20536;-72
2023/04/22 07:28:14;;;;;;;4.53;2.90;;;;;;;;;;4988535;28;20046;-75
2023/04/22 07:30:45;;;;;;;5.30;3.13;;;;;;;;;;4988828;28;20057;-71
2023/04/22 07:33:14;;;;;;;4.85;2.60;;;;;;;;;;4994459;28;20048;-72
2023/04/22 07:35:46;;;;;;;4.93;2.58;;;;;;;;;;5008701;28;20046;-74
2023/04/22 07:38:16;;;;;;;5.32;2.88;;;;;;;;;;5008626;28;20058;-75
2023/04/22 07:40:47;;;;;;;3.72;2.50;;;;;;;;;;5007773;28;20053;-74
2023/04/22 07:43:17;;;;;;;6.55;2.35;;;;;;;;;;5007905;28;20052;-73
2023/04/22 07:45:47;;;;;;;3.58;2.53;;;;;;;;;;4989689;28;20058;-76
2023/04/22 07:48:17;;;;;;;3.50;2.20;;;;;;;;;;5007153;28;20065;-75
2023/04/22 07:50:48;;;;;;;2.97;1.95;;;;;;;;;;5008279;28;20042;-74
2023/04/22 07:53:19;;;;;;;6.28;2.20;;;;;;;;;;5006958;28;20851;-72
2023/04/22 07:55:49;;;;;;;4.07;2.20;;;;;;;;;;5007918;28;20046;-77
2023/04/22 07:58:19;;;;;;;;;;;;;;;;;;5008266;28;20536;-75
2023/04/22 08:00:50;;;;;;;4.55;2.35;;;;;;;;;;5007818;28;19925;-78
2023/04/22 08:03:21;;;;;;;6.03;2.85;;;;;;;;;;5007184;28;20042;-76
2023/04/22 08:05:52;;;;;;;3.83;2.42;;;;;;;;;;4990063;28;20424;-76
2023/04/22 08:08:23;;;;;;;4.40;1.90;;;;;;;;;;5008631;28;20425;-75
2023/04/22 08:10:53;;;;;;;3.28;2.50;;;;;;;;;;5007999;28;20516;-72
2023/04/22 08:13:23;;;;;;;3.17;2.25;;;;;;;;;;5007423;28;20049;-75
2023/04/22 08:16:06;;;;;;;2.78;2.28;;;;;;;;;;5007694;28;20754;-71
2023/04/22 08:18:36;;;;;;;2.90;2.00;;;;;;;;;;5007214;28;20076;-73
2023/04/22 08:21:06;;;;;;;3.13;1.98;;;;;;;;;;5007030;28;20497;-71
2023/04/22 08:23:37;;;;;;;3.97;2.20;;;;;;;;;;5007537;28;20374;-75
2023/04/22 08:26:13;;;;;;;4.07;2.10;;;;;;;;;;5019015;28;20053;-74
2023/04/22 08:28:45;;;;;;;3.50;2.10;;;;;;;;;;5027170;28;20057;-73
2023/04/22 08:31:16;;;;;;;2.22;1.52;;;;;;;;;;5027105;28;20041;-77
2023/04/22 08:33:47;;;;;;;2.85;2.20;;;;;;;;;;5026716;28;20049;-74
2023/04/22 08:36:17;;;;;;;4.43;2.28;;;;;;;;;;5026549;28;20480;-74
2023/04/22 08:38:49;;;;;;;3.28;1.92;;;;;;;;;;5024429;28;20053;-71
2023/04/22 08:41:23;;;;;;;1.88;1.40;;;;;;;;;;5027018;28;20053;-74
2023/04/22 08:43:53;;;;;;;6.63;2.40;;;;;;;;;;5026919;28;20511;-74
2023/04/22 08:46:24;;;;;;;3.65;2.30;;;;;;;;;;5026622;28;20057;-73
2023/04/22 08:49:07;;;;;;;2.25;1.65;;;;;;;;;;5026386;28;20838;-74
2023/04/22 08:51:38;;;;;;;2.75;2.13;;;;;;;;;;5026614;28;20037;-75
2023/04/22 08:54:10;;;;;;;7.38;2.40;;;;;;;;;;5026619;28;20408;-76
2023/04/22 08:56:42;;;;;;;3.22;2.03;;;;;;;;;;5026636;28;20049;-72
2023/04/22 08:59:14;;;;;;;5.90;1.90;;;;;;;;;;5026493;28;20045;-75
2023/04/22 09:01:49;;;;;;;2.88;2.08;;;;;;;;;;5026387;28;20057;-75
2023/04/22 09:04:19;;;;;;;2.28;1.70;;;;;;;;;;5026330;28;20057;-77
2023/04/22 09:06:49;;;;;;;2.30;1.90;;;;;;;;;;5025925;28;20056;-75
2023/04/22 09:09:20;;;;;;;6.38;1.90;;;;;;;;;;5025805;28;20049;-75
2023/04/22 09:11:51;;;;;;;3.03;1.77;;;;;;;;;;5026559;28;20048;-73
2023/04/22 09:14:22;;;;;;;2.80;1.50;;;;;;;;;;5025838;28;20068;-73
2023/04/22 09:16:52;;;;;;;5.15;2.13;;;;;;;;;;5026591;28;20041;-76
2023/04/22 09:19:24;;;;;;;4.35;2.13;;;;;;;;;;5025310;28;20049;-72
2023/04/22 09:21:59;;;;;;;3.08;2.00;;;;;;;;;;5026254;28;20053;-78
2023/04/22 09:24:29;;;;;;;3.28;1.50;;;;;;;;;;5022770;28;20065;-72
2023/04/22 09:27:02;;;;;;;4.63;2.25;;;;;;;;;;4987605;28;20053;-72
2023/04/22 09:29:32;;;;;;;2.75;1.98;;;;;;;;;;5006497;28;20049;-71
2023/04/22 09:32:10;;;;;;;;;;;;;;;;;;5006793;28;20056;-72
2023/04/22 09:34:54;;;;;;;2.08;1.80;;;;;;;;;;5005748;28;20423;-70
2023/04/22 09:37:25;;;;;;;3.40;2.53;;;;;;;;;;5006412;28;20527;-72
2023/04/22 09:40:17;;;;;;;10.95;2.40;;;;;;;;;;5006117;28;20394;-72
2023/04/22 09:42:54;;;;;;;3.67;1.88;;;;;;;;;;4975903;28;20062;-74
2023/04/22 09:45:29;;;;;;;9.00;1.88;;;;;;;;;;4986033;28;20630;-69
2023/04/22 09:48:07;;;;;;;11.25;1.98;;;;;;;;;;4986227;28;20046;-72
2023/04/22 09:50:39;;;;;;;3.75;1.40;;;;;;;;;;4986365;28;20046;-72
2023/04/22 09:53:14;;;;;;;4.43;1.88;;;;;;;;;;4967844;28;20058;-72
2023/04/22 09:55:51;;;;;;;5.97;1.73;;;;;;;;;;4985581;28;20058;-73
2023/04/22 09:58:26;;;;;;;8.60;2.60;;;;;;;;;;4968878;28;20043;-74
2023/04/22 10:00:58;;;;;;;4.22;2.20;;;;;;;;;;4986092;28;20205;-76
2023/04/22 10:03:33;;;;;;;7.85;1.85;;;;;;;;;;4985984;28;20544;-75
2023/04/22 10:06:05;;;;;;;8.10;2.00;;;;;;;;;;4986438;28;20436;-74
2023/04/22 10:08:38;;;;;;;5.07;1.77;;;;;;;;;;4985338;28;20050;-75
2023/04/22 10:11:08;;;;;;;3.88;1.60;;;;;;;;;;4985757;28;20056;-75
2023/04/22 10:13:39;;;;;;;6.20;1.95;;;;;;;;;;4967809;28;20053;-71
2023/04/22 10:16:09;;;;;;;3.50;1.55;;;;;;;;;;4985301;28;20054;-75
2023/04/22 10:18:40;;;;;;;11.98;2.03;;;;;;;;;;4986067;28;20389;-71
2023/04/22 10:21:11;;;;;;;8.10;2.45;;;;;;;;;;4985550;28;20046;-75
2023/04/22 10:23:48;;;;;;;9.65;2.47;;;;;;;;;;4985941;28;20060;-75
2023/04/22 10:26:51;;;;;;;4.43;1.95;;;;;;;;;;5000376;28;20069;-79
2023/04/22 10:29:38;;;;;;;3.75;2.03;;;;;;;;;;5005325;28;20132;-71
2023/04/22 10:32:09;;;;;;;4.22;2.30;;;;;;;;;;5005228;28;20049;-72
2023/04/22 10:34:39;;;;;;;5.65;2.30;;;;;;;;;;5005399;28;20042;-72
2023/04/22 10:37:13;;;;;;;4.28;1.88;;;;;;;;;;5005528;28;20057;-71
2023/04/22 10:40:10;;;;;;;3.75;2.33;;;;;;;;;;5003168;28;20414;-73
2023/04/22 10:42:41;;;;;;;3.03;2.30;;;;;;;;;;5004551;28;20050;-73
2023/04/22 10:45:14;;;;;;;5.20;2.10;;;;;;;;;;5004659;28;20069;-72
2023/04/22 10:47:45;;;;;;;4.35;2.35;;;;;;;;;;5004574;28;20054;-74
2023/04/22 10:50:27;;;;;;;4.57;1.98;;;;;;;;;;5005398;28;20528;-72
2023/04/22 10:53:21;;;;;;;7.45;2.42;;;;;;;;;;5003532;28;20066;-73
2023/04/22 10:55:55;;;;;;;5.93;2.42;;;;;;;;;;5005293;28;20052;-72
2023/04/22 10:58:26;;;;;;;8.20;2.60;;;;;;;;;;5004492;28;20513;-71
2023/04/22 11:01:01;;;;;;;7.85;2.58;;;;;;;;;;5004724;28;20045;-72
2023/04/22 11:03:32;;;;;;;6.93;3.15;;;;;;;;;;5005045;28;20046;-72
2023/04/22 11:06:18;;;;;;;4.88;2.45;;;;;;;;;;5005032;28;20131;-72
2023/04/22 11:09:06;;;;;;;9.40;2.70;;;;;;;;;;5004911;28;20065;-71
2023/04/22 11:11:36;;;;;;;4.78;2.50;;;;;;;;;;5005375;28;20049;-78
2023/04/22 11:14:08;;;;;;;5.82;2.40;;;;;;;;;;5003881;28;20076;-70
2023/04/22 11:16:40;;;;;;;6.45;2.33;;;;;;;;;;5005197;28;20057;-74
2023/04/22 11:19:11;;;;;;;3.55;1.70;;;;;;;;;;5004692;28;20046;-73
2023/04/22 11:21:43;;;;;;;3.40;1.65;;;;;;;;;;5004868;28;20536;-74
2023/04/22 11:24:19;;;;;;;6.00;2.60;;;;;;;;;;5002628;28;20049;-73
2023/04/22 11:26:50;;;;;;;8.95;1.60;;;;;;;;;;4985073;28;20046;-71
2023/04/22 11:29:22;;;;;;;3.83;1.40;;;;;;;;;;4987375;28;20054;-74
2023/04/22 11:31:52;;;;;;;8.57;2.10;;;;;;;;;;4988696;28;20046;-74
2023/04/22 11:34:22;;;;;;;3.85;1.33;;;;;;;;;;4988485;28;20053;-73
2023/04/22 11:36:52;;;;;;;5.95;1.80;;;;;;;;;;4988651;28;20049;-73
2023/04/22 11:39:23;;;;;;;8.27;1.60;;;;;;;;;;4988899;28;20630;-73
2023/04/22 11:41:55;;;;;;;7.22;1.38;;;;;;;;;;4989067;28;20053;-72
2023/04/22 11:44:26;;;;;;;6.93;1.70;;;;;;;;;;4988960;28;20053;-73
2023/04/22 11:46:56;;;;;;;4.20;1.50;;;;;;;;;;4988340;28;20042;-72
2023/04/22 11:49:27;;;;;;;4.68;1.55;;;;;;;;;;4988240;28;20051;-73
2023/04/22 11:51:57;;;;;;;3.88;2.17;;;;;;;;;;4988289;28;20394;-72
2023/04/22 11:54:32;;;;;;;6.88;1.50;;;;;;;;;;4988525;28;20532;-74
2023/04/22 11:57:10;;;;;;;3.05;1.50;;;;;;;;;;4987344;28;20498;-74
2023/04/22 11:59:41;;;;;;;2.30;1.50;;;;;;;;;;4988705;28;20058;-74
2023/04/22 12:02:12;;;;;;;6.15;1.73;;;;;;;;;;4970390;28;20062;-72
2023/04/22 12:04:43;;;;;;;9.95;4.65;;;;;;;;;;4987914;28;20073;-74
2023/04/22 12:07:14;;;;;;;7.50;2.15;;;;;;;;;;4969951;28;20054;-72
2023/04/22 12:09:45;;;;;;;12.05;2.25;;;;;;;;;;4970338;28;20054;-74
2023/04/22 12:12:16;;;;;;;8.35;2.90;;;;;;;;;;4988223;28;20057;-72
2023/04/22 12:14:47;;;;;;;8.30;2.10;;;;;;;;;;4954224;28;20058;-73
2023/04/22 12:17:23;;;;;;;5.43;2.78;;;;;;;;;;4987917;28;20054;-74
2023/04/22 12:19:54;;;;;;;6.70;2.67;;;;;;;;;;4987840;28;20513;-73
2023/04/22 12:22:32;;;;;;;4.20;2.17;;;;;;;;;;4971123;28;20505;-72
2023/04/22 12:25:02;;;;;;;4.95;2.13;;;;;;;;;;4988099;28;20047;-75
2023/04/22 12:27:32;;;;;;;4.03;1.48;;;;;;;;;;4987537;28;20042;-74
2023/04/22 12:30:04;;;;;;;4.68;1.30;;;;;;;;;;4987517;28;20049;-72
2023/04/22 12:32:35;;;;;;;4.13;1.50;;;;;;;;;;4988056;28;20053;-74
2023/04/22 12:35:07;;;;;;;3.28;1.38;;;;;;;;;;4987636;28;20050;-75
2023/04/22 12:37:37;;;;;;;3.88;1.10;;;;;;;;;;4987360;28;20054;-75
2023/04/22 12:40:09;;;;;;;5.68;1.35;;;;;;;;;;4987296;28;20057;-74
2023/04/22 12:42:40;;;;;;;1.40;0.77;;;;;;;;;;4987337;28;20046;-75
2023/04/22 12:45:10;;;;;;;2.58;0.90;;;;;;;;;;4989360;28;20054;-71
2023/04/22 12:47:42;;;;;;;4.80;1.50;;;;;;;;;;4987476;28;20398;-72
2023/04/22 12:50:11;;;;;;;4.38;1.08;;;;;;;;;;4987122;28;20061;-72
2023/04/22 12:52:42;;;;;;;2.00;0.80;;;;;;;;;;4970564;28;20050;-73
2023/04/22 12:55:13;;;;;;;2.25;0.70;;;;;;;;;;4987532;28;20050;-72
2023/04/22 12:57:45;;;;;;;4.93;1.00;;;;;;;;;;4986763;28;20055;-74
2023/04/22 13:00:16;;;;;;;3.15;0.70;;;;;;;;;;4987043;28;20046;-74
2023/04/22 13:02:49;;;;;;;2.00;0.93;;;;;;;;;;4986959;28;20053;-73
2023/04/22 13:05:20;;;;;;;1.05;0.60;;;;;;;;;;4969281;28;20055;-73
2023/04/22 13:07:50;;;;;;;2.05;0.80;;;;;;;;;;4970193;28;20065;-73
2023/04/22 13:10:35;;;;;;;1.45;1.00;;;;;;;;;;4987232;28;20437;-73
2023/04/22 13:13:07;;;;;;;2.30;0.88;;;;;;;;;;4986293;28;20065;-72
2023/04/22 13:15:52;;;;;;;3.63;1.08;;;;;;;;;;4986646;28;20046;-72
2023/04/22 13:18:23;;;;;;;1.75;0.90;;;;;;;;;;4986551;28;20592;-74
2023/04/22 13:20:55;;;;;;;2.45;1.00;;;;;;;;;;4987117;28;20046;-72
2023/04/22 13:23:27;;;;;;;5.35;1.48;;;;;;;;;;4987295;28;20050;-73
2023/04/22 13:25:57;;;;;;;3.15;1.00;;;;;;;;;;4986591;28;20521;-73
2023/04/22 13:28:28;;;;;;;1.67;1.20;;;;;;;;;;4985893;28;20703;-73
2023/04/22 13:30:58;;;;;;;2.00;0.90;;;;;;;;;;4968971;28;20058;-74
2023/04/22 13:33:29;;;;;;;4.75;1.15;;;;;;;;;;4969226;28;20058;-74
2023/04/22 13:36:00;;;;;;;1.65;0.95;;;;;;;;;;4986264;28;20042;-74
2023/04/22 13:38:31;;;;;;;2.75;1.10;;;;;;;;;;4986954;28;20057;-73
2023/04/22 13:41:00;;;;;;;3.88;1.30;;;;;;;;;;4986133;28;20417;-72
2023/04/22 13:43:31;;;;;;;2.25;1.10;;;;;;;;;;4986087;28;20828;-73
2023/04/22 13:46:02;;;;;;;6.45;1.17;;;;;;;;;;4986086;28;20049;-74
2023/04/22 13:48:33;;;;;;;2.92;1.23;;;;;;;;;;4986249;28;20055;-75
2023/04/22 13:51:03;;;;;;;1.88;1.00;;;;;;;;;;4968608;28;20692;-74
2023/04/22 13:53:33;;;;;;;1.92;0.93;;;;;;;;;;4986259;28;20053;-73
2023/04/22 13:56:03;;;;;;;1.90;1.00;;;;;;;;;;4986183;28;20042;-72
2023/04/22 13:58:33;;;;;;;2.88;1.30;;;;;;;;;;4985858;28;20042;-73
2023/04/22 14:01:06;;;;;;;1.45;0.98;;;;;;;;;;4986269;28;20504;-73
2023/04/22 14:03:38;;;;;;;2.83;0.98;;;;;;;;;;4969226;28;20054;-73
2023/04/22 14:06:10;;;;;;;2.03;1.25;;;;;;;;;;4985604;28;20500;-72
2023/04/22 14:08:40;;;;;;;2.72;1.40;;;;;;;;;;4986422;28;20476;-74
2023/04/22 14:11:11;;;;;;;1.73;1.20;;;;;;;;;;4968216;28;20058;-73
2023/04/22 14:13:43;;;;;;;3.13;1.10;;;;;;;;;;4986072;28;20069;-73
2023/04/22 14:16:16;;;;;;;1.20;1.08;;;;;;;;;;4985764;28;20042;-72
2023/04/22 14:18:48;;;;;;;3.38;1.63;;;;;;;;;;4985897;28;20046;-71
2023/04/22 14:21:19;;;;;;;1.95;1.33;;;;;;;;;;4985664;28;20502;-72
2023/04/22 14:23:49;;;;;;;4.35;1.25;;;;;;;;;;4985165;28;20050;-71
2023/04/22 14:26:19;;;;;;;2.40;1.08;;;;;;;;;;4984675;28;20085;-71
2023/04/22 14:28:49;;;;;;;6.55;1.50;;;;;;;;;;4985320;28;20061;-77
2023/04/22 14:31:23;;;;;;;3.22;1.50;;;;;;;;;;4985707;28;20088;-72
2023/04/22 14:33:54;;;;;;;3.47;1.92;;;;;;;;;;4986330;28;20390;-73
2023/04/22 14:36:24;;;;;;;3.38;1.17;;;;;;;;;;4985557;28;20050;-74
2023/04/22 14:38:55;;;;;;;2.67;1.20;;;;;;;;;;4985341;28;20046;-74
2023/04/22 14:41:26;;;;;;;2.05;1.20;;;;;;;;;;4985131;28;20047;-72
2023/04/22 14:43:57;;;;;;;2.75;1.02;;;;;;;;;;4985745;28;20043;-74
2023/04/22 14:46:29;;;;;;;8.80;1.98;;;;;;;;;;4985693;28;20047;-72
2023/04/22 14:48:59;;;;;;;2.65;1.20;;;;;;;;;;4985704;28;20050;-73
2023/04/22 14:51:31;;;;;;;4.15;1.40;;;;;;;;;;4985512;28;20713;-72
2023/04/22 14:54:04;;;;;;;3.63;1.40;;;;;;;;;;4985341;28;20061;-73
2023/04/22 14:56:35;;;;;;;2.97;1.40;;;;;;;;;;4985454;28;20511;-74
2023/04/22 14:59:05;;;;;;;4.30;1.65;;;;;;;;;;4985744;28;20077;-73
2023/04/22 15:01:36;;;;;;;3.75;1.67;;;;;;;;;;4985397;28;20047;-73
2023/04/22 15:04:07;;;;;;;3.08;1.60;;;;;;;;;;4989043;28;20054;-72
2023/04/22 15:06:38;;;;;;;2.70;1.40;;;;;;;;;;4989486;28;20054;-73
2023/04/22 15:09:10;;;;;;;1.70;1.23;;;;;;;;;;4989361;28;20058;-73
2023/04/22 15:11:40;;;;;;;6.53;1.63;;;;;;;;;;4989173;28;20047;-72
2023/04/22 15:14:11;;;;;;;4.65;1.80;;;;;;;;;;4989166;28;20053;-73
2023/04/22 15:16:44;;;;;;;5.40;1.70;;;;;;;;;;4988981;28;20051;-73